createdAt,value
2023-02-16T00:03:43.675Z,32.88
2023-02-16T00:08:47.693Z,33.95
2023-02-16T00:13:53.158Z,35.83
2023-02-16T00:18:56.654Z,35.05
2023-02-16T00:23:59.766Z,35.42
2023-02-16T00:29:04.325Z,33.47
2023-02-16T00:34:20.930Z,34.88
2023-02-16T00:39:24.987Z,35.30
2023-02-16T00:44:33.462Z,32.58
2023-02-16T00:49:36.640Z,34.20
2023-02-16T00:54:39.766Z,35.78
2023-02-16T00:59:44.341Z,34.33
2023-02-16T01:04:47.579Z,35.67
2023-02-16T01:10:08.365Z,35.15
2023-02-16T01:15:14.035Z,33.92
2023-02-16T01:20:18.028Z,34.08
2023-02-16T01:25:21.306Z,33.97
2023-02-16T01:30:27.152Z,32.70
2023-02-16T01:35:34.141Z,33.92
2023-02-16T01:40:39.544Z,32.97
2023-02-16T01:45:47.820Z,35.28
2023-02-16T01:50:55.594Z,35.03
2023-02-16T01:56:01.257Z,36.63
2023-02-16T02:01:23.167Z,34.13
2023-02-16T02:06:31.481Z,33.97
2023-02-16T02:11:37.704Z,30.75
2023-02-16T02:16:41.073Z,33.83
2023-02-16T02:22:14.190Z,32.20
2023-02-16T02:27:21.837Z,34.10
2023-02-16T02:32:30.498Z,31.90
2023-02-16T02:37:40.838Z,31.23
2023-02-16T02:42:49.916Z,33.28
2023-02-16T02:47:53.308Z,32.95
2023-02-16T02:52:58.721Z,32.40
2023-02-16T02:58:21.985Z,33.65
2023-02-16T03:03:27.747Z,35.65
2023-02-16T03:08:33.186Z,32.45
2023-02-16T03:13:38.806Z,36.95
2023-02-16T03:18:59.980Z,34.50
2023-02-16T03:29:27.072Z,25.10
2023-02-16T03:34:31.146Z,34.35
2023-02-16T03:39:55.636Z,33.55
2023-02-16T03:45:00.197Z,32.08
2023-02-16T03:50:03.408Z,33.97
2023-02-16T03:55:06.838Z,35.53
2023-02-16T04:00:12.294Z,34.85
2023-02-16T04:05:20.101Z,31.00
2023-02-16T04:10:23.590Z,33.45
2023-02-16T04:15:28.927Z,35.40
2023-02-16T04:20:32.828Z,36.10
2023-02-16T04:25:36.157Z,36.70
2023-02-16T04:30:40.828Z,37.53
2023-02-16T04:35:44.127Z,38.08
2023-02-16T04:40:47.270Z,38.67
2023-02-16T04:45:51.879Z,39.55
2023-02-16T04:50:54.998Z,39.03
2023-02-16T04:55:58.054Z,39.72
2023-02-16T05:01:02.875Z,39.53
2023-02-16T05:06:06.661Z,41.80
2023-02-16T05:11:27.711Z,40.78
2023-02-16T05:16:32.227Z,39.15
2023-02-16T05:21:35.852Z,38.70
2023-02-16T05:26:39.936Z,40.97
2023-02-16T05:31:44.576Z,40.15
2023-02-16T05:36:47.705Z,41.13
2023-02-16T05:41:50.886Z,41.03
2023-02-16T05:46:55.360Z,40.40
2023-02-16T05:51:58.466Z,40.38
2023-02-16T05:57:01.560Z,40.72
2023-02-16T06:02:06.477Z,39.08
2023-02-16T06:07:09.513Z,41.88
2023-02-16T06:12:12.752Z,42.60
2023-02-16T06:17:17.260Z,40.60
2023-02-16T06:22:20.443Z,39.22
2023-02-16T06:27:23.707Z,41.00
2023-02-16T06:32:28.295Z,42.33
2023-02-16T06:37:31.542Z,41.42
2023-02-16T06:42:34.839Z,43.33
2023-02-16T06:47:39.437Z,39.15
2023-02-16T06:52:42.595Z,40.67
2023-02-16T06:57:45.685Z,47.08
2023-02-16T07:02:50.136Z,40.40
2023-02-16T07:07:53.325Z,39.17
2023-02-16T07:12:56.475Z,40.10
2023-02-16T07:18:00.899Z,39.92
2023-02-16T07:23:04.088Z,40.33
2023-02-16T07:28:07.512Z,41.00
2023-02-16T07:33:12.246Z,38.90
2023-02-16T07:38:15.702Z,39.08
2023-02-16T07:43:19.390Z,39.72
2023-02-16T07:48:24.440Z,38.10
2023-02-16T07:53:27.861Z,39.28
2023-02-16T07:58:30.988Z,37.08
2023-02-16T08:03:35.595Z,40.67
2023-02-16T08:08:39.526Z,37.75
2023-02-16T08:13:43.197Z,39.65
2023-02-16T08:18:47.980Z,38.78
2023-02-16T08:23:54.419Z,39.10
2023-02-16T08:28:58.621Z,42.72
2023-02-16T08:34:04.034Z,37.45
2023-02-16T08:39:08.204Z,38.00
2023-02-16T08:44:12.100Z,35.95
2023-02-16T08:49:18.916Z,36.58
2023-02-16T08:54:23.151Z,36.85
2023-02-16T08:59:28.626Z,35.53
2023-02-16T09:04:33.743Z,37.97
2023-02-16T09:09:36.858Z,36.47
2023-02-16T09:14:40.630Z,36.70
2023-02-16T09:19:45.217Z,35.95
2023-02-16T09:24:48.617Z,37.92
2023-02-16T09:29:52.110Z,37.00
2023-02-16T09:34:57.185Z,37.58
2023-02-16T09:40:00.511Z,37.35
2023-02-16T09:45:06.167Z,40.97
2023-02-16T09:50:17.083Z,37.63
2023-02-16T09:55:22.637Z,37.88
2023-02-16T10:00:30.853Z,35.35
2023-02-16T10:05:42.804Z,38.58
2023-02-16T10:10:49.314Z,40.72
2023-02-16T10:15:54.249Z,40.67
2023-02-16T10:21:01.061Z,40.42
2023-02-16T10:26:08.078Z,39.67
2023-02-16T10:31:14.234Z,41.20
2023-02-16T10:36:24.799Z,41.38
2023-02-16T10:41:31.785Z,30.42
2023-02-16T10:46:39.518Z,42.50
2023-02-16T10:51:46.617Z,42.95
2023-02-16T10:56:52.835Z,42.55
2023-02-16T11:01:57.638Z,42.22
2023-02-16T11:07:06.474Z,42.88
2023-02-16T11:12:17.430Z,41.70
2023-02-16T11:17:22.456Z,43.53
2023-02-16T11:22:29.311Z,44.30
2023-02-16T11:27:32.718Z,42.67
2023-02-16T11:32:37.329Z,42.92
2023-02-16T11:37:42.177Z,42.53
2023-02-16T11:42:47.223Z,44.30
2023-02-16T11:47:53.630Z,42.72
2023-02-16T11:52:59.251Z,41.85
2023-02-16T11:58:25.354Z,44.80
2023-02-16T12:03:46.323Z,43.85
2023-02-16T12:08:58.220Z,43.65
2023-02-16T12:14:08.269Z,44.38
2023-02-16T12:19:25.786Z,42.42
2023-02-16T12:24:36.238Z,40.83
2023-02-16T12:29:45.088Z,44.30
2023-02-16T12:34:55.973Z,41.22
2023-02-16T12:40:04.310Z,45.53
2023-02-16T12:45:11.158Z,43.92
2023-02-16T12:50:18.464Z,42.03
2023-02-16T12:55:26.177Z,40.33
2023-02-16T13:00:35.334Z,41.50
2023-02-16T13:05:38.842Z,38.05
2023-02-16T13:10:48.497Z,37.75
2023-02-16T13:15:53.139Z,36.85
2023-02-16T13:21:00.376Z,35.78
2023-02-16T13:26:19.833Z,34.75
2023-02-16T13:31:29.471Z,32.50
2023-02-16T13:36:41.995Z,32.92
2023-02-16T13:42:04.349Z,32.78
2023-02-16T13:47:08.083Z,32.38
2023-02-16T13:52:11.566Z,34.05
2023-02-16T13:57:36.318Z,32.40
2023-02-16T14:02:54.557Z,32.58
2023-02-16T14:08:12.712Z,32.83
2023-02-16T14:13:17.230Z,32.95
2023-02-16T14:18:28.790Z,32.83
2023-02-16T14:23:34.822Z,31.83
2023-02-16T14:29:03.008Z,32.95
2023-02-16T14:34:10.147Z,31.23
2023-02-16T14:39:16.962Z,29.65
2023-02-16T14:44:27.622Z,30.20
2023-02-16T14:49:40.807Z,28.67
2023-02-16T14:55:03.892Z,26.50
2023-02-16T15:00:14.371Z,26.33
2023-02-16T15:05:18.953Z,24.48
2023-02-16T15:10:26.912Z,26.02
2023-02-16T15:15:40.170Z,24.27
2023-02-16T15:20:45.685Z,25.58
2023-02-16T15:25:56.942Z,23.30
2023-02-16T15:31:02.765Z,21.08
2023-02-16T15:36:09.018Z,21.88
2023-02-16T15:41:14.539Z,20.80
2023-02-16T15:46:24.887Z,21.25
2023-02-16T15:51:31.800Z,21.47
2023-02-16T15:56:38.137Z,21.98
2023-02-16T16:01:42.872Z,21.13
2023-02-16T16:06:48.405Z,22.13
2023-02-16T16:11:52.052Z,22.13
2023-02-16T16:16:57.303Z,22.40
2023-02-16T16:22:00.571Z,22.95
2023-02-16T16:27:06.584Z,23.20
2023-02-16T16:32:19.223Z,22.75
2023-02-16T16:37:26.608Z,23.90
2023-02-16T16:42:29.698Z,24.13
2023-02-16T16:47:35.649Z,24.08
2023-02-16T16:52:40.589Z,24.33
2023-02-16T16:57:43.793Z,24.98
2023-02-16T17:02:48.882Z,25.10
2023-02-16T17:07:52.395Z,25.75
2023-02-16T17:12:57.240Z,28.25
2023-02-16T17:18:02.487Z,26.52
2023-02-16T17:23:06.110Z,26.50
2023-02-16T17:28:10.402Z,27.58
2023-02-16T17:33:15.025Z,28.63
2023-02-16T17:38:19.589Z,27.92
2023-02-16T17:43:23.549Z,28.95
2023-02-16T17:48:29.515Z,29.52
2023-02-16T17:53:33.199Z,29.50
2023-02-16T17:58:36.472Z,29.35
2023-02-16T18:03:41.331Z,30.48
2023-02-16T18:08:45.156Z,28.17
2023-02-16T18:13:48.588Z,24.83
2023-02-16T18:18:53.457Z,26.65
2023-02-16T18:23:56.678Z,25.65
2023-02-16T18:28:59.983Z,27.17
2023-02-16T18:34:06.159Z,28.17
2023-02-16T18:39:09.901Z,31.02
2023-02-16T18:44:13.261Z,28.48
2023-02-16T18:49:18.095Z,28.33
2023-02-16T18:54:21.645Z,27.88
2023-02-16T18:59:24.927Z,27.40
2023-02-16T19:04:29.923Z,29.20
2023-02-16T19:09:33.189Z,29.85
2023-02-16T19:14:36.639Z,30.40
2023-02-16T19:19:41.398Z,28.55
2023-02-16T19:24:44.590Z,27.75
2023-02-16T19:29:48.296Z,29.52
2023-02-16T19:34:52.809Z,28.80
2023-02-16T19:39:56.114Z,32.92
2023-02-16T19:44:59.542Z,28.15
2023-02-16T19:50:04.554Z,29.40
2023-02-16T19:55:08.422Z,28.10
2023-02-16T20:00:14.156Z,29.08
2023-02-16T20:05:19.200Z,27.77
2023-02-16T20:10:22.363Z,31.13
2023-02-16T20:15:25.848Z,28.90
2023-02-16T20:20:30.342Z,26.67
2023-02-16T20:25:33.470Z,28.45
2023-02-16T20:30:36.534Z,28.05
2023-02-16T20:35:41.328Z,26.67
2023-02-16T20:40:44.672Z,27.92
2023-02-16T20:45:48.254Z,32.45
2023-02-16T20:50:55.471Z,28.38
2023-02-16T20:56:01.677Z,28.42
2023-02-16T21:01:05.695Z,28.83
2023-02-16T21:06:10.658Z,28.10
2023-02-16T21:11:14.124Z,27.83
2023-02-16T21:16:17.291Z,27.65
2023-02-16T21:21:21.948Z,30.05
2023-02-16T21:26:26.012Z,28.30
2023-02-16T21:31:29.331Z,29.58
2023-02-16T21:36:34.225Z,29.08
2023-02-16T21:41:37.629Z,27.70
2023-02-16T21:46:41.888Z,28.02
2023-02-16T21:51:47.078Z,29.42
2023-02-16T21:56:51.769Z,28.65
2023-02-16T22:01:55.085Z,31.30
2023-02-16T22:06:59.583Z,30.00
2023-02-16T22:12:02.845Z,29.95
2023-02-16T22:17:07.695Z,29.00
2023-02-16T22:22:12.290Z,28.17
2023-02-16T22:27:15.515Z,25.80
2023-02-16T22:32:18.730Z,22.75
2023-02-16T22:37:23.357Z,21.33
2023-02-16T22:42:26.660Z,19.58
2023-02-16T22:47:30.238Z,19.77
2023-02-16T22:52:36.474Z,21.05
2023-02-16T22:57:39.961Z,21.02
2023-02-16T23:02:43.040Z,20.80
2023-02-16T23:07:47.505Z,23.95
2023-02-16T23:12:50.633Z,23.20
2023-02-16T23:17:53.913Z,25.83
2023-02-16T23:22:58.381Z,23.88
2023-02-16T23:28:01.907Z,22.90
2023-02-16T23:33:05.082Z,22.00
2023-02-16T23:38:13.005Z,21.23
2023-02-16T23:43:16.078Z,20.05
2023-02-16T23:48:19.149Z,19.98
2023-02-16T23:53:24.161Z,19.95
2023-02-16T23:58:28.384Z,18.88
